Time;durP1;ratioP1;P1;durP2;ratioP2;P2;SDS_P1;SDS_P2;PMS_P1;PMS_P2;Temp;Humidity;BMP_temperature;BMP_pressure;BME280_temperature;BME280_humidity;BME280_pressure;Samples;Min_cycle;Max_cycle;Signal;HPM_P1;HPM_P2
2022/09/22 00:01:23;;;;;;;15.02;12.07;;;;;;;13.76;50.96;102377.41;5091062;28;20036;-67
2022/09/22 00:03:57;;;;;;;17.45;11.85;;;;;;;13.73;51.11;102368.63;5090951;28;20040;-66
2022/09/22 00:06:26;;;;;;;13.43;11.05;;;;;;;13.68;50.71;102364.38;5074916;28;20052;-67
2022/09/22 00:08:56;;;;;;;12.98;10.60;;;;;;;13.59;50.84;102366.75;5074930;28;20342;-67
2022/09/22 00:11:27;;;;;;;14.95;11.27;;;;;;;13.51;50.98;102369.91;5074851;28;20044;-66
2022/09/22 00:14:01;;;;;;;11.68;10.07;;;;;;;13.45;51.33;102374.81;5091206;28;20386;-66
2022/09/22 00:16:31;;;;;;;10.80;9.70;;;;;;;13.39;51.11;102370.63;5095259;28;20509;-66
2022/09/22 00:18:57;;;;;;;12.50;10.85;;;;;;;13.35;51.14;102379.84;5095544;28;20032;-66
2022/09/22 00:21:29;;;;;;;10.70;9.60;;;;;;;13.31;51.49;102371.06;5094820;28;20086;-66
2022/09/22 00:24:02;;;;;;;11.57;10.18;;;;;;;13.30;51.40;102363.91;5078431;28;20040;-67
2022/09/22 00:26:30;;;;;;;12.13;10.88;;;;;;;13.30;51.36;102363.03;5056658;28;20048;-66
2022/09/22 00:28:57;;;;;;;13.15;10.68;;;;;;;13.26;51.36;102365.06;5056925;28;20041;-67
2022/09/22 00:31:24;;;;;;;12.30;11.00;;;;;;;13.22;51.34;102368.88;5074751;28;20173;-66
2022/09/22 00:33:53;;;;;;;13.13;11.35;;;;;;;13.19;51.79;102366.38;5089303;28;20123;-66
2022/09/22 00:36:24;;;;;;;12.48;11.18;;;;;;;13.17;51.63;102365.59;5076444;28;20102;-67
2022/09/22 00:38:52;;;;;;;13.40;10.88;;;;;;;13.19;51.79;102360.09;5094723;28;20040;-65
2022/09/22 00:41:24;;;;;;;13.20;11.73;;;;;;;13.20;51.92;102360.00;5093245;28;20268;-66
2022/09/22 00:44:27;;;;;;;14.02;11.40;;;;;;;13.20;51.97;102359.16;5094671;28;20165;-66
2022/09/22 00:47:06;;;;;;;11.73;10.55;;;;;;;13.21;51.74;102356.34;5076411;28;20464;-67
2022/09/22 00:49:45;;;;;;;14.23;11.30;;;;;;;13.21;51.53;102350.09;5094621;28;20048;-66
2022/09/22 00:52:17;;;;;;;13.50;10.85;;;;;;;13.20;51.77;102351.94;5079111;28;20475;-66
2022/09/22 00:54:47;;;;;;;11.60;10.27;;;;;;;13.21;51.84;102350.97;5074748;28;20483;-66
2022/09/22 00:57:18;;;;;;;12.73;11.00;;;;;;;13.22;51.36;102349.13;5074105;28;20060;-66
2022/09/22 00:59:49;;;;;;;14.00;11.50;;;;;;;13.20;51.91;102348.34;5073981;28;20048;-67
2022/09/22 01:02:15;;;;;;;11.88;10.50;;;;;;;13.16;52.12;102347.63;5088736;28;20059;-66
2022/09/22 01:04:49;;;;;;;12.27;10.35;;;;;;;13.12;51.62;102342.50;5093617;28;20071;-66
2022/09/22 01:07:18;;;;;;;14.55;10.38;;;;;;;13.08;51.79;102344.50;5093861;28;20082;-67
2022/09/22 01:09:45;;;;;;;12.85;11.20;;;;;;;13.04;52.03;102335.72;5094039;28;20048;-66
2022/09/22 01:12:11;;;;;;;12.25;10.93;;;;;;;13.06;52.10;102335.63;5058093;28;20059;-66
2022/09/22 01:15:08;;;;;;;13.80;10.98;;;;;;;13.03;52.26;102335.81;5074746;28;20086;-66
2022/09/22 01:17:54;;;;;;;13.77;10.35;;;;;;;13.02;52.11;102332.25;5073554;28;20044;-66
2022/09/22 01:20:22;;;;;;;12.23;10.32;;;;;;;13.02;52.15;102337.63;5074832;28;20103;-65
2022/09/22 01:23:19;;;;;;;11.57;10.38;;;;;;;13.02;52.12;102331.38;5093744;28;20044;-66
2022/09/22 01:26:07;;;;;;;11.35;10.13;;;;;;;13.02;51.95;102324.16;5094064;28;20121;-65
2022/09/22 01:28:55;;;;;;;12.40;10.93;;;;;;;12.99;52.04;102326.16;5059102;28;20476;-66
2022/09/22 01:31:40;;;;;;;12.63;10.73;;;;;;;12.93;52.06;102319.28;5092587;28;20486;-66
2022/09/22 01:34:31;;;;;;;11.82;10.20;;;;;;;12.91;52.27;102317.66;5093753;28;20052;-65
2022/09/22 01:37:10;;;;;;;14.57;10.63;;;;;;;12.90;51.88;102324.88;5093682;28;20052;-66
2022/09/22 01:39:43;;;;;;;12.07;9.57;;;;;;;12.90;51.83;102318.59;5093586;28;20044;-65
2022/09/22 01:42:35;;;;;;;13.07;9.85;;;;;;;12.88;52.09;102318.69;5076818;28;20044;-65
2022/09/22 01:45:37;;;;;;;12.98;9.75;;;;;;;12.87;52.31;102314.25;5073615;28;20106;-66
2022/09/22 01:48:12;;;;;;;13.80;9.93;;;;;;;12.87;52.35;102322.34;5030534;28;20068;-66
2022/09/22 01:50:43;;;;;;;14.07;10.85;;;;;;;12.84;52.36;102322.53;5072102;28;20044;-66
2022/09/22 01:53:13;;;;;;;12.27;10.95;;;;;;;12.82;52.30;102310.09;5093065;28;20086;-66
2022/09/22 01:55:46;;;;;;;10.77;9.65;;;;;;;12.80;52.58;102306.59;5093711;28;20102;-65
2022/09/22 01:58:20;;;;;;;12.25;10.40;;;;;;;12.79;52.57;102307.56;5093352;28;20044;-65
2022/09/22 02:00:54;;;;;;;12.10;10.38;;;;;;;12.77;52.66;102307.66;5074567;28;20040;-65
2022/09/22 02:04:00;;;;;;;13.15;10.73;;;;;;;12.70;52.56;102303.56;5072592;28;20044;-65
2022/09/22 02:06:40;;;;;;;10.63;9.52;;;;;;;12.67;52.72;102299.22;5068792;28;20053;-66
2022/09/22 02:09:11;;;;;;;13.40;11.07;;;;;;;12.68;52.49;102292.00;5055056;28;20048;-65
2022/09/22 02:11:38;;;;;;;11.05;9.52;;;;;;;12.70;52.81;102296.34;5081239;28;20121;-66
2022/09/22 02:14:05;;;;;;;11.70;10.50;;;;;;;12.70;52.51;102290.09;5092744;28;20387;-66
2022/09/22 02:16:33;;;;;;;13.63;10.80;;;;;;;12.71;52.63;102287.31;5093028;28;20036;-66
2022/09/22 02:19:10;;;;;;;11.70;10.60;;;;;;;12.72;52.48;102290.88;5091517;28;20040;-67
2022/09/22 02:21:42;;;;;;;14.13;10.07;;;;;;;12.73;52.83;102279.13;5072335;28;20131;-67
2022/09/22 02:24:35;;;;;;;12.93;9.48;;;;;;;12.70;52.71;102290.09;5072612;28;20496;-67
2022/09/22 02:27:07;;;;;;;10.50;9.50;;;;;;;12.71;52.60;102287.31;5071915;28;20044;-67
2022/09/22 02:29:38;;;;;;;10.23;9.23;;;;;;;12.70;52.56;102277.47;5072685;28;20044;-67
2022/09/22 02:32:10;;;;;;;11.73;9.07;;;;;;;12.70;52.77;102273.91;5072125;28;20043;-67
2022/09/22 02:34:38;;;;;;;10.63;9.15;;;;;;;12.70;52.62;102279.31;5072589;28;20554;-67
2022/09/22 02:37:19;;;;;;;13.60;10.10;;;;;;;12.66;52.68;102280.44;5071852;28;20056;-65
2022/09/22 02:40:06;;;;;;;13.52;9.63;;;;;;;12.60;52.89;102278.94;5072279;28;20426;-66
2022/09/22 02:42:40;;;;;;;13.50;9.43;;;;;;;12.61;52.89;102269.88;5085817;28;20048;-66
2022/09/22 02:45:24;;;;;;;10.88;9.15;;;;;;;12.62;52.90;102270.75;5092420;28;20048;-66
2022/09/22 02:47:58;;;;;;;11.40;8.90;;;;;;;12.62;52.89;102270.75;5073949;28;20036;-66
2022/09/22 02:50:27;;;;;;;11.98;9.55;;;;;;;12.63;52.89;102268.00;5081170;28;20032;-66
2022/09/22 02:53:02;;;;;;;11.65;10.20;;;;;;;12.64;52.95;102274.25;5071840;28;20072;-66
2022/09/22 02:55:30;;;;;;;10.50;9.40;;;;;;;12.62;52.81;102271.63;5071953;28;20045;-67
2022/09/22 02:57:57;;;;;;;10.00;8.88;;;;;;;12.61;52.68;102282.50;5071868;28;20403;-66
2022/09/22 03:00:23;;;;;;;11.90;9.25;;;;;;;12.60;52.62;102267.28;5081433;28;20040;-66
2022/09/22 03:02:50;;;;;;;11.85;9.32;;;;;;;12.59;52.79;102268.25;5091515;28;20040;-66
2022/09/22 03:05:17;;;;;;;13.20;10.50;;;;;;;12.56;52.87;102263.88;5092463;28;20043;-66
2022/09/22 03:07:44;;;;;;;12.48;10.07;;;;;;;12.55;52.98;102266.69;5091854;28;20085;-66
2022/09/22 03:10:10;;;;;;;10.70;9.32;;;;;;;12.51;52.80;102257.03;5091756;28;20036;-66
2022/09/22 03:12:41;;;;;;;12.15;9.70;;;;;;;12.47;53.18;102260.84;5077121;28;20181;-66
2022/09/22 03:15:28;;;;;;;13.60;10.13;;;;;;;12.41;52.86;102260.25;5071449;28;20063;-65
2022/09/22 03:17:54;;;;;;;12.23;10.45;;;;;;;12.36;53.12;102262.31;5071675;28;20087;-66
2022/09/22 03:20:21;;;;;;;11.20;9.38;;;;;;;12.33;52.96;102259.81;5071200;28;20078;-66
2022/09/22 03:22:48;;;;;;;12.27;10.15;;;;;;;12.28;53.32;102256.50;5071480;28;20453;-66
2022/09/22 03:25:14;;;;;;;11.68;10.48;;;;;;;12.26;53.18;102255.72;5088441;28;20052;-67
2022/09/22 03:27:41;;;;;;;13.85;9.93;;;;;;;12.25;53.26;102256.66;5091662;28;20044;-66
2022/09/22 03:30:08;;;;;;;13.30;9.63;;;;;;;12.25;53.46;102253.09;5091514;28;20102;-65
2022/09/22 03:32:36;;;;;;;13.25;10.10;;;;;;;12.23;53.48;102249.63;5091442;28;20044;-66
2022/09/22 03:35:04;;;;;;;12.80;10.35;;;;;;;12.19;53.53;102251.63;5090661;28;20123;-66
2022/09/22 03:37:32;;;;;;;11.98;10.70;;;;;;;12.13;53.34;102251.97;5070530;28;20558;-66
2022/09/22 03:39:59;;;;;;;13.15;11.20;;;;;;;12.09;53.60;102250.38;5071464;28;20037;-65
2022/09/22 03:42:26;;;;;;;12.02;10.13;;;;;;;12.03;53.84;102248.91;5071161;28;20028;-66
2022/09/22 03:44:54;;;;;;;10.85;9.75;;;;;;;11.98;53.83;102248.28;5071378;28;20055;-66
2022/09/22 03:47:21;;;;;;;12.18;10.45;;;;;;;11.96;53.70;102252.88;5071108;28;20491;-66
2022/09/22 03:49:47;;;;;;;10.88;9.55;;;;;;;11.93;53.76;102249.50;5090491;28;20055;-66
2022/09/22 03:52:14;;;;;;;13.02;10.40;;;;;;;11.92;54.01;102251.31;5073179;28;20036;-66
2022/09/22 03:54:40;;;;;;;12.98;10.65;;;;;;;11.93;54.05;102249.50;5091431;28;20044;-66
2022/09/22 03:57:07;;;;;;;11.35;10.15;;;;;;;11.93;54.01;102239.59;5075282;28;20073;-66
2022/09/22 03:59:33;;;;;;;15.10;10.50;;;;;;;11.95;54.11;102245.75;5052986;28;20622;-66
2022/09/22 04:02:01;;;;;;;13.85;10.85;;;;;;;11.96;54.16;102242.13;5070804;28;20048;-65
2022/09/22 04:04:28;;;;;;;12.50;10.52;;;;;;;11.96;54.28;102244.81;5071424;28;20041;-65
2022/09/22 04:06:55;;;;;;;12.90;10.25;;;;;;;11.96;54.15;102243.94;5071238;28;20075;-65
2022/09/22 04:09:21;;;;;;;10.60;9.40;;;;;;;11.94;54.27;102235.09;5071013;28;20045;-65
2022/09/22 04:11:48;;;;;;;13.10;9.95;;;;;;;11.92;54.25;102234.28;5070770;28;20044;-66
2022/09/22 04:14:18;;;;;;;12.18;9.88;;;;;;;11.92;54.33;102234.28;5053279;28;20402;-66
2022/09/22 04:16:44;;;;;;;13.20;9.98;;;;;;;11.90;54.14;102228.13;5084958;28;20109;-66
2022/09/22 04:19:12;;;;;;;12.60;11.13;;;;;;;11.90;54.44;102229.00;5090653;28;20064;-65
2022/09/22 04:21:38;;;;;;;13.43;10.85;;;;;;;11.91;54.51;102227.16;5090819;28;20548;-65
2022/09/22 04:24:10;;;;;;;11.80;10.43;;;;;;;11.91;54.76;102222.66;5091099;28;20051;-66
2022/09/22 04:26:38;;;;;;;11.82;10.63;;;;;;;11.94;54.57;102227.88;5090016;28;20040;-65
2022/09/22 04:29:21;;;;;;;12.30;10.67;;;;;;;11.98;54.51;102221.38;5090922;28;20448;-66
2022/09/22 04:31:48;;;;;;;12.02;10.57;;;;;;;12.01;54.45;102231.97;5090708;28;20460;-66
2022/09/22 04:34:19;;;;;;;13.05;10.38;;;;;;;12.03;54.28;102224.69;5091084;28;20394;-65
2022/09/22 04:36:46;;;;;;;11.57;10.38;;;;;;;12.05;54.47;102225.47;5073760;28;20469;-66
2022/09/22 04:39:13;;;;;;;11.70;10.25;;;;;;;12.06;54.34;102223.63;5070611;28;20052;-66
2022/09/22 04:41:39;;;;;;;13.10;11.73;;;;;;;12.07;54.27;102223.56;5070181;28;20048;-66
2022/09/22 04:44:06;;;;;;;13.82;11.65;;;;;;;12.07;54.19;102225.38;5071056;28;20049;-66
2022/09/22 04:46:33;;;;;;;13.07;11.70;;;;;;;12.04;54.17;102215.63;5084922;28;20047;-67
2022/09/22 04:48:59;;;;;;;12.98;11.63;;;;;;;12.02;54.02;102219.38;5091291;28;20059;-67
2022/09/22 04:51:26;;;;;;;16.58;12.30;;;;;;;12.00;54.26;102214.06;5094557;28;20631;-66
2022/09/22 04:53:54;;;;;;;15.93;12.80;;;;;;;11.97;54.40;102221.44;5094322;28;20044;-66
2022/09/22 04:56:21;;;;;;;15.55;12.68;;;;;;;11.96;54.17;102222.41;5094374;28;20105;-66
2022/09/22 04:58:48;;;;;;;19.48;13.00;;;;;;;11.96;54.41;102225.09;5074303;28;20105;-66
2022/09/22 05:01:14;;;;;;;16.55;12.23;;;;;;;11.96;54.54;102231.34;5076441;28;20044;-65
2022/09/22 05:03:45;;;;;;;16.17;12.88;;;;;;;11.96;54.43;102225.09;5094427;28;20032;-66
2022/09/22 05:06:11;;;;;;;16.30;12.68;;;;;;;11.94;54.56;102229.69;5084232;28;20052;-65
2022/09/22 05:08:38;;;;;;;13.85;12.27;;;;;;;11.91;54.50;102232.56;5073987;28;20090;-65
2022/09/22 05:11:08;;;;;;;12.88;11.57;;;;;;;11.88;54.52;102235.38;5073779;28;20047;-66
2022/09/22 05:13:39;;;;;;;15.93;11.88;;;;;;;11.83;54.70;102232.06;5073796;28;20040;-67
2022/09/22 05:16:07;;;;;;;17.35;12.65;;;;;;;11.77;54.61;102231.44;5063670;28;20082;-66
2022/09/22 05:18:34;;;;;;;16.90;12.38;;;;;;;11.73;54.71;102228.97;5093891;28;20040;-66
2022/09/22 05:21:01;;;;;;;14.65;12.50;;;;;;;11.70;54.88;102231.84;5093960;28;20451;-67
2022/09/22 05:23:27;;;;;;;14.75;12.82;;;;;;;11.66;54.72;102233.81;5093819;28;20052;-65
2022/09/22 05:26:01;;;;;;;16.33;13.55;;;;;;;11.65;54.85;102239.28;5093814;28;20379;-65
2022/09/22 05:28:28;;;;;;;17.13;12.57;;;;;;;11.62;54.88;102234.06;5084807;28;20094;-65
2022/09/22 05:30:54;;;;;;;15.82;12.68;;;;;;;11.62;55.07;102239.44;5073544;28;20044;-66
2022/09/22 05:33:21;;;;;;;15.70;12.15;;;;;;;11.63;55.09;102246.56;5073821;28;20040;-67
2022/09/22 05:35:47;;;;;;;16.95;12.25;;;;;;;11.64;55.02;102238.41;5055653;28;20044;-66
2022/09/22 05:38:14;;;;;;;13.02;11.65;;;;;;;11.66;55.35;102241.88;5073487;28;20033;-66
2022/09/22 05:40:40;;;;;;;13.77;11.48;;;;;;;11.67;55.06;102240.06;5074300;28;20486;-65
2022/09/22 05:43:07;;;;;;;14.20;12.38;;;;;;;11.69;55.17;102241.72;5073239;28;20394;-65
2022/09/22 05:45:34;;;;;;;13.93;12.35;;;;;;;11.73;55.08;102242.44;5055495;28;20048;-65
2022/09/22 05:48:00;;;;;;;13.85;12.15;;;;;;;11.77;55.26;102238.63;5073330;28;20553;-65
2022/09/22 05:50:27;;;;;;;15.73;12.43;;;;;;;11.78;55.31;102243.09;5073095;28;20098;-66
2022/09/22 05:53:05;;;;;;;14.68;12.55;;;;;;;11.76;55.09;102243.13;5074001;28;20502;-67
2022/09/22 05:55:32;;;;;;;14.18;12.73;;;;;;;11.77;55.06;102244.91;5073123;28;20056;-66
2022/09/22 05:57:59;;;;;;;13.75;12.27;;;;;;;11.79;55.08;102250.22;5055203;28;20044;-66
2022/09/22 06:00:27;;;;;;;14.27;12.65;;;;;;;11.81;55.32;102245.63;5073427;28;20372;-66
2022/09/22 06:02:53;;;;;;;14.40;12.05;;;;;;;11.83;55.28;102246.41;5054923;28;20399;-66
2022/09/22 06:05:21;;;;;;;13.27;11.88;;;;;;;11.86;55.15;102239.97;5055158;28;20040;-65
2022/09/22 06:07:56;;;;;;;13.43;11.88;;;;;;;11.90;55.21;102244.28;5077910;28;20109;-65
2022/09/22 06:10:23;;;;;;;17.95;12.25;;;;;;;11.93;55.29;102249.50;5075684;28;20045;-66
2022/09/22 06:12:50;;;;;;;12.93;11.25;;;;;;;11.96;55.37;102243.94;5072566;28;20048;-67
2022/09/22 06:15:18;;;;;;;12.88;11.50;;;;;;;11.98;55.16;102248.28;5055192;28;20048;-67
2022/09/22 06:17:45;;;;;;;13.75;12.13;;;;;;;12.03;55.21;102245.34;5072707;28;20048;-65
2022/09/22 06:20:11;;;;;;;15.05;11.77;;;;;;;12.05;55.25;102252.38;5092805;28;20444;-66
2022/09/22 06:22:38;;;;;;;15.02;12.15;;;;;;;12.08;55.35;102244.13;5074713;28;20044;-66
2022/09/22 06:25:07;;;;;;;13.05;11.02;;;;;;;12.10;55.43;102249.44;5093148;28;20048;-66
2022/09/22 06:27:34;;;;;;;15.35;11.57;;;;;;;12.13;55.32;102245.72;5091137;28;20048;-66
2022/09/22 06:30:01;;;;;;;12.98;11.48;;;;;;;12.17;55.41;102247.28;5092590;28;20089;-67
2022/09/22 06:32:27;;;;;;;13.10;11.63;;;;;;;12.20;55.51;102245.28;5092512;28;20493;-66
2022/09/22 06:34:54;;;;;;;15.23;12.23;;;;;;;12.23;55.29;102247.81;5085734;28;20041;-65
2022/09/22 06:37:22;;;;;;;15.50;11.95;;;;;;;12.25;55.61;102250.41;5072396;28;20036;-66
2022/09/22 06:39:48;;;;;;;16.13;12.00;;;;;;;12.27;55.44;102243.13;5072085;28;20056;-66
2022/09/22 06:42:16;;;;;;;15.15;12.13;;;;;;;12.28;55.67;102248.41;5072453;28;20036;-66
2022/09/22 06:44:44;;;;;;;13.80;12.40;;;;;;;12.30;55.82;102242.94;5072636;28;20101;-66
2022/09/22 06:47:11;;;;;;;16.45;13.32;;;;;;;12.33;55.70;102248.16;5072722;28;20053;-66
2022/09/22 06:49:37;;;;;;;15.77;13.40;;;;;;;12.34;55.84;102250.75;5072063;28;20060;-66
2022/09/22 06:52:04;;;;;;;26.55;13.45;;;;;;;12.38;55.88;102246.06;5072062;28;20174;-66
2022/09/22 06:54:34;;;;;;;13.73;12.07;;;;;;;12.43;56.19;102241.28;5071948;28;20051;-66
2022/09/22 06:57:01;;;;;;;16.70;12.75;;;;;;;12.52;56.25;102250.69;5071798;28;20045;-66
2022/09/22 06:59:29;;;;;;;16.27;12.88;;;;;;;12.62;56.70;102247.38;5073201;28;20041;-66
2022/09/22 07:01:55;;;;;;;15.35;12.93;;;;;;;12.80;56.84;102248.16;5071637;28;20123;-66
2022/09/22 07:04:24;;;;;;;14.93;11.63;;;;;;;12.99;56.85;102240.72;5071962;28;20499;-66
2022/09/22 07:06:50;;;;;;;13.98;11.35;;;;;;;13.22;57.17;102236.69;5071702;28;20044;-66
2022/09/22 07:09:17;;;;;;;20.02;11.55;;;;;;;13.44;56.83;102240.81;5073753;28;20070;-66
2022/09/22 07:11:44;;;;;;;13.25;11.52;;;;;;;13.66;56.90;102235.84;5071891;28;20055;-66
2022/09/22 07:14:11;;;;;;;13.55;10.45;;;;;;;13.89;56.67;102237.97;5071722;28;20041;-66
2022/09/22 07:16:38;;;;;;;14.40;10.55;;;;;;;14.10;56.58;102235.75;5068465;28;20037;-66
2022/09/22 07:19:05;;;;;;;11.90;9.95;;;;;;;14.34;56.96;102241.44;5091602;28;20059;-65
2022/09/22 07:21:35;;;;;;;12.27;10.38;;;;;;;14.57;56.51;102234.56;5088443;28;20047;-65
2022/09/22 07:24:06;;;;;;;13.20;9.95;;;;;;;14.81;56.27;102241.03;5071504;28;20054;-65
2022/09/22 07:26:36;;;;;;;12.57;9.50;;;;;;;15.03;56.43;102234.22;5071329;28;20060;-66
2022/09/22 07:29:06;;;;;;;13.18;10.07;;;;;;;15.23;56.18;102228.31;5072019;28;20036;-65
2022/09/22 07:31:33;;;;;;;14.77;9.45;;;;;;;15.42;55.53;102236.91;5073206;28;20049;-66
2022/09/22 07:34:02;;;;;;;12.00;8.93;;;;;;;15.64;55.56;102233.63;5080613;28;20043;-65
2022/09/22 07:36:31;;;;;;;11.75;9.52;;;;;;;15.83;55.30;102235.91;5075044;28;20043;-67
2022/09/22 07:39:06;;;;;;;13.65;9.98;;;;;;;16.03;55.27;102227.19;5071329;28;20037;-67
2022/09/22 07:41:51;;;;;;;15.88;10.20;;;;;;;16.22;54.97;102237.56;5071253;28;20044;-67
2022/09/22 07:47:09;;;;;;;14.07;10.32;;;;;;;16.68;54.76;102226.09;5071182;28;20084;-67
2022/09/22 07:49:36;;;;;;;16.27;12.10;;;;;;;16.86;54.60;102219.28;5071160;28;20049;-67
2022/09/22 07:52:03;;;;;;;14.60;10.63;;;;;;;17.02;54.37;102222.56;5071064;28;20044;-67
2022/09/22 07:54:35;;;;;;;12.57;9.15;;;;;;;17.16;53.80;102224.25;5071243;28;20045;-67
2022/09/22 07:57:05;;;;;;;16.20;11.00;;;;;;;17.33;53.81;102231.09;5070838;28;20041;-68
2022/09/22 07:59:32;;;;;;;14.77;10.80;;;;;;;17.48;53.92;102235.31;5070966;28;20037;-68
2022/09/22 08:02:00;;;;;;;15.90;10.07;;;;;;;17.61;53.49;102224.34;5071160;28;20446;-68
2022/09/22 08:04:30;;;;;;;15.38;10.63;;;;;;;17.77;53.42;102230.34;5071416;28;20537;-66
2022/09/22 08:06:57;;;;;;;13.65;10.68;;;;;;;17.96;53.27;102227.91;5070882;28;20044;-69
2022/09/22 08:09:24;;;;;;;15.98;10.90;;;;;;;18.12;52.82;102226.69;5087155;28;20382;-69
2022/09/22 08:11:52;;;;;;;14.48;11.30;;;;;;;18.29;52.74;102224.31;5087272;28;20036;-69
2022/09/22 08:14:22;;;;;;;11.85;10.38;;;;;;;18.45;52.61;102220.31;5087314;28;20066;-68
2022/09/22 08:16:50;;;;;;;20.23;11.63;;;;;;;18.63;52.56;102229.75;5078360;28;20064;-69
2022/09/22 08:19:17;;;;;;;17.88;12.68;;;;;;;18.80;52.25;102220.16;5070679;28;20041;-70
2022/09/22 08:21:46;;;;;;;15.35;11.60;;;;;;;18.96;51.97;102213.31;5071070;28;20040;-69
2022/09/22 08:24:20;;;;;;;16.45;11.75;;;;;;;19.13;51.80;102220.03;5053936;28;20048;-69
2022/09/22 08:26:51;;;;;;;16.50;11.75;;;;;;;19.24;51.52;102222.69;5074739;28;20052;-75
2022/09/22 08:29:19;;;;;;;13.23;11.40;;;;;;;19.31;51.21;102220.31;5074660;28;20045;-69
2022/09/22 08:31:47;;;;;;;17.67;11.90;;;;;;;19.37;51.02;102214.38;5057864;28;20511;-68
2022/09/22 08:34:16;;;;;;;12.85;11.07;;;;;;;19.44;50.90;102209.25;5094933;28;20042;-69
2022/09/22 08:36:45;;;;;;;19.33;11.52;;;;;;;19.56;50.57;102209.06;5094555;28;20355;-69
2022/09/22 08:39:12;;;;;;;13.63;11.07;;;;;;;19.72;50.44;102208.59;5094645;28;20533;-69
2022/09/22 08:42:07;;;;;;;13.00;10.10;;;;;;;19.81;49.75;102206.91;5094438;28;20441;-69
2022/09/22 08:44:38;;;;;;;14.27;10.80;;;;;;;19.87;49.52;102211.81;5095049;28;20032;-69
2022/09/22 08:47:04;;;;;;;12.48;10.30;;;;;;;19.92;49.80;102210.41;5094744;28;20052;-69
2022/09/22 08:52:47;;;;;;;14.90;10.98;;;;;;;20.13;49.12;102213.09;5094261;28;20056;-69
2022/09/22 08:55:21;;;;;;;13.05;10.02;;;;;;;20.19;49.12;102207.09;5094655;28;20040;-68
2022/09/22 08:58:02;;;;;;;13.90;9.80;;;;;;;20.25;48.67;102212.00;5094556;28;20055;-68
2022/09/22 09:00:48;;;;;;;12.48;8.95;;;;;;;20.29;48.64;102213.44;5094373;28;20439;-68
2022/09/22 09:03:21;;;;;;;12.32;7.90;;;;;;;20.39;48.84;102216.22;5080779;28;20070;-68
2022/09/22 09:05:59;;;;;;;10.88;7.93;;;;;;;20.51;48.65;102206.06;5084696;28;20055;-68
2022/09/22 09:08:53;;;;;;;12.80;7.97;;;;;;;20.64;48.12;102209.38;5094332;28;20110;-68
2022/09/22 09:11:46;;;;;;;10.55;7.32;;;;;;;20.76;47.93;102201.94;5091108;28;20040;-68
2022/09/22 09:14:18;;;;;;;8.07;7.13;;;;;;;20.88;47.84;102203.53;5074042;28;20052;-68
2022/09/22 09:16:57;;;;;;;10.05;7.13;;;;;;;20.99;47.29;102205.28;5073715;28;20083;-68
2022/09/22 09:19:42;;;;;;;10.23;7.30;;;;;;;21.10;47.17;102208.72;5073760;28;20045;-68
2022/09/22 09:22:23;;;;;;;8.48;6.32;;;;;;;21.22;47.09;102213.06;5074748;28;20048;-68
2022/09/22 09:25:21;;;;;;;8.68;7.00;;;;;;;21.31;46.84;102211.31;5072441;28;20041;-68
2022/09/22 09:27:55;;;;;;;8.48;6.35;;;;;;;21.43;46.72;102206.56;5093894;28;20343;-68
2022/09/22 09:30:23;;;;;;;7.43;6.65;;;;;;;21.54;46.72;102207.25;5093665;28;20048;-68
2022/09/22 09:33:00;;;;;;;7.75;6.45;;;;;;;21.66;46.72;102205.22;5081003;28;20037;-68
2022/09/22 09:35:57;;;;;;;8.30;6.72;;;;;;;21.78;45.92;102198.56;5072999;28;20062;-68
2022/09/22 09:38:27;;;;;;;10.05;6.38;;;;;;;21.89;45.80;102206.59;5053310;28;20506;-68
2022/09/22 09:41:09;;;;;;;8.77;6.35;;;;;;;21.97;45.39;102202.25;5073220;28;20048;-68
2022/09/22 09:43:44;;;;;;;7.82;6.90;;;;;;;22.06;45.32;102193.16;5073847;28;20576;-69
2022/09/22 09:46:23;;;;;;;10.02;5.90;;;;;;;22.13;45.53;102191.53;5087790;28;20059;-68
2022/09/22 09:49:04;;;;;;;8.85;6.00;;;;;;;22.24;45.15;102204.16;5093861;28;20056;-68
2022/09/22 09:51:37;;;;;;;8.55;5.43;;;;;;;22.32;45.15;102202.41;5093025;28;20498;-68
2022/09/22 09:54:11;;;;;;;;;;;;;;;22.38;45.17;102199.06;5073993;28;20029;-69
2022/09/22 09:57:06;;;;;;;7.40;5.22;;;;;;;22.47;44.70;102194.53;5073947;28;19920;-68
2022/09/22 10:00:35;;;;;;;7.18;5.13;;;;;;;22.57;44.66;102195.34;5073472;28;20048;-68
2022/09/22 10:03:01;;;;;;;5.60;4.15;;;;;;;22.73;44.68;102191.91;5072253;28;20413;-68
2022/09/22 10:05:30;;;;;;;7.28;4.22;;;;;;;22.89;44.38;102189.38;5057017;28;20060;-69
2022/09/22 10:08:00;;;;;;;7.13;4.07;;;;;;;22.98;43.83;102182.94;5073197;28;20133;-70
2022/09/22 10:10:32;;;;;;;5.28;3.83;;;;;;;23.11;43.71;102183.44;5073478;28;20497;-70
2022/09/22 10:12:59;;;;;;;4.15;3.65;;;;;;;23.21;43.30;102183.34;5085864;28;20036;-70
2022/09/22 10:15:30;;;;;;;4.65;3.33;;;;;;;23.26;43.01;102178.22;5093402;28;20048;-69
2022/09/22 10:17:57;;;;;;;5.57;3.75;;;;;;;23.32;42.56;102169.38;5092665;28;20056;-69
2022/09/22 10:20:27;;;;;;;5.63;3.70;;;;;;;23.38;42.60;102163.25;5093355;28;20089;-68
2022/09/22 10:22:55;;;;;;;4.38;3.72;;;;;;;23.51;42.56;102170.19;5082407;28;20040;-68
2022/09/22 10:25:30;;;;;;;5.82;3.92;;;;;;;23.60;42.26;102171.97;5073136;28;20045;-68
2022/09/22 10:28:04;;;;;;;6.20;3.50;;;;;;;23.71;41.76;102167.09;5072823;28;20102;-69
2022/09/22 10:30:32;;;;;;;3.45;3.15;;;;;;;23.85;41.62;102162.03;5073526;28;20036;-69
2022/09/22 10:33:07;;;;;;;5.05;3.20;;;;;;;23.96;40.90;102162.59;5073087;28;20045;-69
2022/09/22 10:35:35;;;;;;;3.20;2.65;;;;;;;23.99;40.81;102162.28;5073283;28;20071;-69
2022/09/22 10:38:22;;;;;;;5.07;2.90;;;;;;;24.09;40.22;102163.00;5072447;28;20094;-70
2022/09/22 10:40:55;;;;;;;4.47;3.33;;;;;;;24.20;40.24;102156.34;5073378;28;20102;-69
2022/09/22 10:43:59;;;;;;;5.97;2.63;;;;;;;24.31;39.73;102149.72;5072241;28;20044;-69
2022/09/22 10:46:49;;;;;;;4.53;3.40;;;;;;;24.44;39.41;102150.09;5071866;28;20051;-70
2022/09/22 10:49:15;;;;;;;;;;;;;;;24.45;39.48;102140.84;5072738;28;20044;-69
2022/09/22 10:52:03;;;;;;;6.68;3.00;;;;;;;24.49;39.41;102141.34;5087177;28;19920;-70
2022/09/22 10:54:55;;;;;;;4.13;3.25;;;;;;;24.56;39.12;102134.19;5093254;28;20081;-69
2022/09/22 10:57:31;;;;;;;5.50;3.30;;;;;;;24.63;38.45;102133.34;5092534;28;20098;-70
2022/09/22 11:00:13;;;;;;;4.82;2.85;;;;;;;24.67;38.29;102131.97;5090877;28;20036;-69
2022/09/22 11:02:56;;;;;;;2.38;1.75;;;;;;;24.76;38.03;102126.47;5092363;28;20036;-70
2022/09/22 11:14:57;;;;;;;3.35;2.22;;;;;;;25.21;37.23;102121.34;5072254;28;20040;-70
2022/09/22 11:17:41;;;;;;;3.65;2.67;;;;;;;25.30;36.88;102127.72;5072118;28;20052;-70
2022/09/22 11:20:11;;;;;;;3.80;2.67;;;;;;;25.38;37.09;102122.19;5078449;28;20051;-70
2022/09/22 11:22:38;;;;;;;2.88;2.30;;;;;;;25.53;36.85;102119.59;5092116;28;20094;-70
2022/09/22 11:25:38;;;;;;;3.63;2.65;;;;;;;25.69;36.46;102124.22;5092670;28;20097;-70
2022/09/22 11:28:34;;;;;;;6.05;2.70;;;;;;;25.79;36.24;102122.09;5092050;28;20444;-69
2022/09/22 11:31:00;;;;;;;3.35;2.20;;;;;;;25.85;36.11;102111.25;5058996;28;20040;-70
2022/09/22 11:34:02;;;;;;;4.78;2.70;;;;;;;25.88;35.89;102110.88;5071923;28;20049;-70
2022/09/22 11:36:40;;;;;;;3.13;2.35;;;;;;;25.91;35.36;102116.03;4990124;28;20046;-70
2022/09/22 11:39:19;;;;;;;2.38;2.13;;;;;;;25.88;35.19;102105.38;5073424;28;20044;-69
2022/09/22 11:42:23;;;;;;;3.75;2.25;;;;;;;25.90;34.68;102105.19;5092203;28;20547;-70
2022/09/22 11:44:59;;;;;;;3.83;2.40;;;;;;;25.82;34.64;102100.59;5027107;28;20045;-69
2022/09/22 11:47:28;;;;;;;3.45;2.55;;;;;;;25.68;34.66;102097.72;5029628;28;20089;-70
2022/09/22 11:50:03;;;;;;;6.25;2.45;;;;;;;25.58;34.65;102097.91;5049634;28;20093;-70
2022/09/22 11:52:51;;;;;;;3.30;2.63;;;;;;;25.53;34.84;102092.06;5071983;28;20101;-70
2022/09/22 11:55:51;;;;;;;5.10;2.60;;;;;;;25.52;34.58;102084.84;5090852;28;20075;-69